createdAt,value
2023-04-07T00:00:01.339Z,7.23
2023-04-07T00:00:11.686Z,7.23
2023-04-07T00:00:22.195Z,7.24
2023-04-07T00:00:32.698Z,7.23
2023-04-07T00:00:43.211Z,7.23
2023-04-07T00:00:53.717Z,7.23
2023-04-07T00:01:04.307Z,7.23
2023-04-07T00:01:14.726Z,7.24
2023-04-07T00:01:25.247Z,7.23
2023-04-07T00:01:35.756Z,7.21
2023-04-07T00:01:46.319Z,7.23
2023-04-07T00:01:56.810Z,7.24
2023-04-07T00:02:07.328Z,7.20
2023-04-07T00:02:17.889Z,7.23
2023-04-07T00:02:28.344Z,7.23
2023-04-07T00:02:38.853Z,7.20
2023-04-07T00:02:49.365Z,7.20
2023-04-07T00:02:59.923Z,7.21
2023-04-07T00:03:10.463Z,7.20
2023-04-07T00:03:20.916Z,7.17
2023-04-07T00:03:31.503Z,7.17
2023-04-07T00:03:41.947Z,7.17
2023-04-07T00:03:52.519Z,7.17
2023-04-07T00:04:03.191Z,7.17
2023-04-07T00:04:13.482Z,7.17
2023-04-07T00:04:23.998Z,7.16
2023-04-07T00:04:34.490Z,7.16
2023-04-07T00:04:44.902Z,7.13
2023-04-07T00:04:55.423Z,7.15
2023-04-07T00:05:06.013Z,7.15
2023-04-07T00:05:16.411Z,7.12
2023-04-07T00:05:26.913Z,7.13
2023-04-07T00:05:37.445Z,7.12
2023-04-07T00:05:47.928Z,7.12
2023-04-07T00:05:58.452Z,7.13
2023-04-07T00:06:08.973Z,7.12
2023-04-07T00:06:19.460Z,7.12
2023-04-07T00:06:29.959Z,7.12
2023-04-07T00:06:40.517Z,7.13
2023-04-07T00:06:50.995Z,7.12
2023-04-07T00:07:01.491Z,7.12
2023-04-07T00:07:12.001Z,7.10
2023-04-07T00:07:22.505Z,7.12
2023-04-07T00:07:37.350Z,7.10
2023-04-07T00:07:55.102Z,7.12
2023-04-07T00:07:56.832Z,7.10
2023-04-07T00:08:04.547Z,7.10
2023-04-07T00:08:15.049Z,7.10
2023-04-07T00:08:25.561Z,7.10
2023-04-07T00:08:36.072Z,7.09
2023-04-07T00:08:46.566Z,7.07
2023-04-07T00:08:57.090Z,7.10
2023-04-07T00:09:07.626Z,7.07
2023-04-07T00:09:18.093Z,7.09
2023-04-07T00:09:28.591Z,7.09
2023-04-07T00:09:39.121Z,7.09
2023-04-07T00:09:49.608Z,7.09
2023-04-07T00:10:00.193Z,7.09
2023-04-07T00:10:10.654Z,7.10
2023-04-07T00:10:21.146Z,7.09
2023-04-07T00:10:31.637Z,7.10
2023-04-07T00:10:42.153Z,7.09
2023-04-07T00:10:52.680Z,7.09
2023-04-07T00:11:03.164Z,7.09
2023-04-07T00:11:13.668Z,7.07
2023-04-07T00:11:24.191Z,7.07
2023-04-07T00:11:34.684Z,7.07
2023-04-07T00:11:45.198Z,7.06
2023-04-07T00:11:55.701Z,7.07
2023-04-07T00:12:06.209Z,7.07
2023-04-07T00:12:16.718Z,7.05
2023-04-07T00:12:27.227Z,7.06
2023-04-07T00:12:37.730Z,7.06
2023-04-07T00:12:48.263Z,7.05
2023-04-07T00:12:58.764Z,7.05
2023-04-07T00:13:09.260Z,7.03
2023-04-07T00:13:19.771Z,7.05
2023-04-07T00:13:30.866Z,7.05
2023-04-07T00:13:40.807Z,7.03
2023-04-07T00:13:51.618Z,7.03
2023-04-07T00:14:01.801Z,7.03
2023-04-07T00:14:12.311Z,7.02
2023-04-07T00:14:22.822Z,7.03
2023-04-07T00:14:33.396Z,7.02
2023-04-07T00:14:43.835Z,6.99
2023-04-07T00:14:54.375Z,6.99
2023-04-07T00:15:04.853Z,6.98
2023-04-07T00:15:15.363Z,6.99
2023-04-07T00:15:25.891Z,6.98
2023-04-07T00:15:36.399Z,6.97
2023-04-07T00:15:46.922Z,6.97
2023-04-07T00:15:57.528Z,6.97
2023-04-07T00:16:07.943Z,6.94
2023-04-07T00:16:18.492Z,6.95
2023-04-07T00:16:28.921Z,6.92
2023-04-07T00:16:39.433Z,6.92
2023-04-07T00:16:49.947Z,6.92
2023-04-07T00:17:00.459Z,6.92
2023-04-07T00:17:10.960Z,6.92
2023-04-07T00:17:21.516Z,6.92
2023-04-07T00:17:31.973Z,6.91
2023-04-07T00:17:42.534Z,6.92
2023-04-07T00:17:53.029Z,6.89
2023-04-07T00:18:03.523Z,6.91
2023-04-07T00:18:13.996Z,6.89
2023-04-07T00:18:24.504Z,6.88
2023-04-07T00:18:35.009Z,6.88
2023-04-07T00:18:45.526Z,6.89
2023-04-07T00:18:56.033Z,6.87
2023-04-07T00:19:06.535Z,6.87
2023-04-07T00:19:17.035Z,6.87
2023-04-07T00:19:27.542Z,6.85
2023-04-07T00:19:38.056Z,6.87
2023-04-07T00:19:48.592Z,6.84
2023-04-07T00:19:59.082Z,6.85
2023-04-07T00:20:09.586Z,6.85
2023-04-07T00:20:20.115Z,6.87
2023-04-07T00:20:30.622Z,6.84
2023-04-07T00:20:41.103Z,6.84
2023-04-07T00:20:51.627Z,6.84
2023-04-07T00:21:02.133Z,6.84
2023-04-07T00:21:12.650Z,6.85
2023-04-07T00:21:23.169Z,6.84
2023-04-07T00:21:33.649Z,6.84
2023-04-07T00:21:44.170Z,6.85
2023-04-07T00:21:54.664Z,6.85
2023-04-07T00:22:05.172Z,6.84
2023-04-07T00:22:15.714Z,6.84
2023-04-07T00:22:26.182Z,6.81
2023-04-07T00:22:36.694Z,6.84
2023-04-07T00:22:47.214Z,6.84
2023-04-07T00:22:57.703Z,6.84
2023-04-07T00:23:08.216Z,6.84
2023-04-07T00:23:18.730Z,6.84
2023-04-07T00:23:29.251Z,6.81
2023-04-07T00:23:39.751Z,6.81
2023-04-07T00:23:50.242Z,6.81
2023-04-07T00:24:00.758Z,6.80
2023-04-07T00:24:12.883Z,6.80
2023-04-07T00:24:31.549Z,6.79
2023-04-07T00:24:34.631Z,6.76
2023-04-07T00:24:42.788Z,6.76
2023-04-07T00:24:53.293Z,6.77
2023-04-07T00:25:03.795Z,6.76
2023-04-07T00:25:14.308Z,6.76
2023-04-07T00:25:24.818Z,6.76
2023-04-07T00:25:35.325Z,6.74
2023-04-07T00:25:45.840Z,6.73
2023-04-07T00:25:56.390Z,6.74
2023-04-07T00:26:06.860Z,6.73
2023-04-07T00:26:17.347Z,6.73
2023-04-07T00:26:27.860Z,6.73
2023-04-07T00:26:38.392Z,6.73
2023-04-07T00:26:48.877Z,6.71
2023-04-07T00:26:59.383Z,6.73
2023-04-07T00:27:09.887Z,6.73
2023-04-07T00:27:20.426Z,6.73
2023-04-07T00:27:30.916Z,6.73
2023-04-07T00:27:41.408Z,6.71
2023-04-07T00:27:51.937Z,6.71
2023-04-07T00:28:02.485Z,6.70
2023-04-07T00:28:12.937Z,6.69
2023-04-07T00:28:23.438Z,6.70
2023-04-07T00:28:33.967Z,6.70
2023-04-07T00:28:44.453Z,6.70
2023-04-07T00:28:54.958Z,6.67
2023-04-07T00:29:05.463Z,6.69
2023-04-07T00:29:15.972Z,6.67
2023-04-07T00:29:26.475Z,6.70
2023-04-07T00:29:37.027Z,6.70
2023-04-07T00:29:47.499Z,6.69
2023-04-07T00:29:58.006Z,6.69
2023-04-07T00:30:08.554Z,6.67
2023-04-07T00:30:19.042Z,6.70
2023-04-07T00:30:29.525Z,6.67
2023-04-07T00:30:40.037Z,6.67
2023-04-07T00:30:50.569Z,6.67
2023-04-07T00:31:01.089Z,6.66
2023-04-07T00:31:11.604Z,6.66
2023-04-07T00:31:22.111Z,6.66
2023-04-07T00:31:32.648Z,6.66
2023-04-07T00:31:43.122Z,6.64
2023-04-07T00:31:53.595Z,6.64
2023-04-07T00:32:04.096Z,6.62
2023-04-07T00:32:14.614Z,6.64
2023-04-07T00:32:25.162Z,6.64
2023-04-07T00:32:36.516Z,6.64
2023-04-07T00:32:46.196Z,6.64
2023-04-07T00:32:56.679Z,6.64
2023-04-07T00:33:09.785Z,6.66
2023-04-07T00:33:17.713Z,6.64
2023-04-07T00:33:28.153Z,6.64
2023-04-07T00:33:38.680Z,6.64
2023-04-07T00:33:49.171Z,6.62
2023-04-07T00:33:59.692Z,6.66
2023-04-07T00:34:10.188Z,6.66
2023-04-07T00:34:20.692Z,6.66
2023-04-07T00:34:31.200Z,6.64
2023-04-07T00:34:41.702Z,6.66
2023-04-07T00:34:52.215Z,6.64
2023-04-07T00:35:02.712Z,6.64
2023-04-07T00:35:13.253Z,6.62
2023-04-07T00:35:23.766Z,6.64
2023-04-07T00:35:34.299Z,6.62
2023-04-07T00:35:44.742Z,6.62
2023-04-07T00:35:55.270Z,6.64
2023-04-07T00:36:05.810Z,6.64
2023-04-07T00:36:16.320Z,6.64
2023-04-07T00:36:26.777Z,6.64
2023-04-07T00:36:37.295Z,6.64
2023-04-07T00:36:47.795Z,6.62
2023-04-07T00:36:58.307Z,6.61
2023-04-07T00:37:08.813Z,6.62
2023-04-07T00:37:19.351Z,6.62
2023-04-07T00:37:29.840Z,6.61
2023-04-07T00:37:40.352Z,6.62
2023-04-07T00:37:50.850Z,6.61
2023-04-07T00:38:01.366Z,6.62
2023-04-07T00:38:11.870Z,6.61
2023-04-07T00:38:22.391Z,6.61
2023-04-07T00:38:32.890Z,6.59
2023-04-07T00:38:43.399Z,6.59
2023-04-07T00:38:53.921Z,6.56
2023-04-07T00:39:04.420Z,6.59
2023-04-07T00:39:14.928Z,6.56
2023-04-07T00:39:25.432Z,6.56
2023-04-07T00:39:35.936Z,6.56
2023-04-07T00:39:46.464Z,6.58
2023-04-07T00:39:56.948Z,6.58
2023-04-07T00:40:07.467Z,6.59
2023-04-07T00:40:17.976Z,6.56
2023-04-07T00:40:28.484Z,6.58
2023-04-07T00:40:38.991Z,6.58
2023-04-07T00:40:49.565Z,6.58
2023-04-07T00:41:00.025Z,6.58
2023-04-07T00:41:10.516Z,6.58
2023-04-07T00:41:21.015Z,6.56
2023-04-07T00:41:31.534Z,6.56
2023-04-07T00:41:42.037Z,6.56
2023-04-07T00:41:52.545Z,6.58
2023-04-07T00:42:03.063Z,6.55
2023-04-07T00:42:13.633Z,6.56
2023-04-07T00:42:24.075Z,6.56
2023-04-07T00:42:34.585Z,6.58
2023-04-07T00:42:45.094Z,6.56
2023-04-07T00:42:55.635Z,6.55
2023-04-07T00:43:06.119Z,6.56
2023-04-07T00:43:16.633Z,6.56
2023-04-07T00:43:27.135Z,6.56
2023-04-07T00:43:37.660Z,6.56
2023-04-07T00:43:48.214Z,6.58
2023-04-07T00:43:58.683Z,6.55
2023-04-07T00:44:09.178Z,6.55
2023-04-07T00:44:19.690Z,6.54
2023-04-07T00:44:30.188Z,6.54
2023-04-07T00:44:40.727Z,6.56
2023-04-07T00:44:51.214Z,6.55
2023-04-07T00:45:01.714Z,6.55
2023-04-07T00:45:12.242Z,6.54
2023-04-07T00:45:22.739Z,6.55
2023-04-07T00:45:33.292Z,6.55
2023-04-07T00:45:43.761Z,6.54
2023-04-07T00:45:54.285Z,6.52
2023-04-07T00:46:04.790Z,6.54
2023-04-07T00:46:15.276Z,6.54
2023-04-07T00:46:25.796Z,6.54
2023-04-07T00:46:36.348Z,6.55
2023-04-07T00:46:46.910Z,6.55
2023-04-07T00:46:57.302Z,6.54
2023-04-07T00:47:07.816Z,6.55
2023-04-07T00:47:18.337Z,6.54
2023-04-07T00:47:28.854Z,6.55
2023-04-07T00:47:39.390Z,6.56
2023-04-07T00:47:49.945Z,6.56
2023-04-07T00:48:00.381Z,6.58
2023-04-07T00:48:10.859Z,6.55
2023-04-07T00:48:21.366Z,6.55
2023-04-07T00:48:31.886Z,6.55
2023-04-07T00:48:42.376Z,6.56
2023-04-07T00:48:52.904Z,6.58
2023-04-07T00:49:03.394Z,6.56
2023-04-07T00:49:13.925Z,6.56
2023-04-07T00:49:24.412Z,6.56
2023-04-07T00:49:34.918Z,6.55
2023-04-07T00:49:45.479Z,6.55
2023-04-07T00:49:55.968Z,6.56
2023-04-07T00:50:06.452Z,6.56
2023-04-07T00:50:16.951Z,6.56
2023-04-07T00:50:27.479Z,6.56
2023-04-07T00:50:37.966Z,6.55
2023-04-07T00:50:48.488Z,6.55
2023-04-07T00:50:58.990Z,6.55
2023-04-07T00:51:09.506Z,6.55
2023-04-07T00:51:20.010Z,6.55
2023-04-07T00:51:30.519Z,6.55
2023-04-07T00:51:41.037Z,6.55
2023-04-07T00:51:51.542Z,6.55
2023-04-07T00:52:02.041Z,6.54
2023-04-07T00:52:12.550Z,6.52
2023-04-07T00:52:23.058Z,6.54
2023-04-07T00:52:33.591Z,6.54
2023-04-07T00:52:44.078Z,6.52
2023-04-07T00:52:54.597Z,6.52
2023-04-07T00:53:05.090Z,6.51
2023-04-07T00:53:15.602Z,6.52
2023-04-07T00:53:26.113Z,6.51
2023-04-07T00:53:36.617Z,6.51
2023-04-07T00:53:47.123Z,6.51
2023-04-07T00:53:57.642Z,6.52
2023-04-07T00:54:08.132Z,6.51
2023-04-07T00:54:18.658Z,6.52
2023-04-07T00:54:29.160Z,6.51
2023-04-07T00:54:39.818Z,6.52
2023-04-07T00:54:50.164Z,6.51
2023-04-07T00:55:00.685Z,6.51
2023-04-07T00:55:11.180Z,6.51
2023-04-07T00:55:21.713Z,6.49
2023-04-07T00:55:32.209Z,6.51
2023-04-07T00:55:42.737Z,6.51
2023-04-07T00:55:53.265Z,6.51
2023-04-07T00:56:03.748Z,6.49
2023-04-07T00:56:14.318Z,6.48
2023-04-07T00:56:24.775Z,6.48
2023-04-07T00:56:35.271Z,6.48
2023-04-07T00:56:45.776Z,6.48
2023-04-07T00:56:56.294Z,6.46
2023-04-07T00:57:06.793Z,6.44
2023-04-07T00:57:17.300Z,6.44
2023-04-07T00:57:27.811Z,6.44
2023-04-07T00:57:38.359Z,6.43
2023-04-07T00:57:48.829Z,6.46
2023-04-07T00:57:59.339Z,6.46
2023-04-07T00:58:09.842Z,6.43
2023-04-07T00:58:20.359Z,6.44
2023-04-07T00:58:30.879Z,6.43
2023-04-07T00:58:41.373Z,6.44
2023-04-07T00:58:51.879Z,6.43
2023-04-07T00:59:02.392Z,6.43
2023-04-07T00:59:12.888Z,6.41
2023-04-07T00:59:23.396Z,6.41
2023-04-07T00:59:33.907Z,6.43
2023-04-07T00:59:44.411Z,6.43
2023-04-07T00:59:54.918Z,6.43
2023-04-07T01:00:05.429Z,6.43
2023-04-07T01:00:15.943Z,6.43
2023-04-07T01:00:26.435Z,6.41
2023-04-07T01:00:36.945Z,6.43
2023-04-07T01:00:47.459Z,6.41
2023-04-07T01:00:57.959Z,6.41
2023-04-07T01:01:08.484Z,6.40
2023-04-07T01:01:19.010Z,6.43
2023-04-07T01:01:29.786Z,6.41
2023-04-07T01:01:40.085Z,6.41
2023-04-07T01:01:50.605Z,6.41
2023-04-07T01:02:01.112Z,6.43
2023-04-07T01:02:11.642Z,6.41
2023-04-07T01:02:22.146Z,6.40
2023-04-07T01:02:32.762Z,6.40
2023-04-07T01:02:43.287Z,6.41
2023-04-07T01:02:53.789Z,6.43
2023-04-07T01:03:04.273Z,6.41
2023-04-07T01:03:14.739Z,6.41
2023-04-07T01:03:25.339Z,6.41
2023-04-07T01:03:35.810Z,6.41
2023-04-07T01:03:46.436Z,6.40
2023-04-07T01:03:56.992Z,6.41
2023-04-07T01:04:07.166Z,6.40
2023-04-07T01:04:17.702Z,6.41
2023-04-07T01:04:28.260Z,6.41
2023-04-07T01:04:38.750Z,6.40
2023-04-07T01:04:49.191Z,6.40
2023-04-07T01:04:59.683Z,6.38
2023-04-07T01:05:10.337Z,6.40
2023-04-07T01:05:20.655Z,6.40
2023-04-07T01:05:31.179Z,6.41
2023-04-07T01:05:41.680Z,6.37
2023-04-07T01:05:52.179Z,6.38
2023-04-07T01:06:02.689Z,6.38
2023-04-07T01:06:13.210Z,6.38
2023-04-07T01:06:23.702Z,6.40
2023-04-07T01:06:34.210Z,6.37
2023-04-07T01:06:44.722Z,6.36
2023-04-07T01:06:55.228Z,6.38
2023-04-07T01:07:05.752Z,6.37
2023-04-07T01:07:16.259Z,6.38
2023-04-07T01:07:26.764Z,6.37
2023-04-07T01:07:37.276Z,6.37
2023-04-07T01:07:47.783Z,6.38
2023-04-07T01:07:58.290Z,6.37
2023-04-07T01:08:08.796Z,6.36
2023-04-07T01:08:19.326Z,6.36
2023-04-07T01:08:29.814Z,6.36
2023-04-07T01:08:40.315Z,6.36
2023-04-07T01:08:50.846Z,6.37
2023-04-07T01:09:01.338Z,6.38
2023-04-07T01:09:11.863Z,6.40
2023-04-07T01:09:22.346Z,6.38
2023-04-07T01:09:32.858Z,6.40
2023-04-07T01:09:43.373Z,6.40
2023-04-07T01:09:53.879Z,6.40
2023-04-07T01:10:04.380Z,6.40
2023-04-07T01:10:14.888Z,6.41
2023-04-07T01:10:25.393Z,6.41
2023-04-07T01:10:35.908Z,6.41
2023-04-07T01:10:46.409Z,6.40
2023-04-07T01:10:56.928Z,6.40
2023-04-07T01:11:07.450Z,6.44
2023-04-07T01:11:17.942Z,6.44
2023-04-07T01:11:28.446Z,6.41
2023-04-07T01:11:38.965Z,6.43
2023-04-07T01:11:49.465Z,6.43
2023-04-07T01:11:59.985Z,6.43
2023-04-07T01:12:10.547Z,6.43
2023-04-07T01:12:20.997Z,6.43
2023-04-07T01:12:31.512Z,6.43
2023-04-07T01:12:42.019Z,6.43
2023-04-07T01:12:52.526Z,6.44
2023-04-07T01:13:03.058Z,6.43
2023-04-07T01:13:13.544Z,6.41
2023-04-07T01:13:24.064Z,6.43
2023-04-07T01:13:34.555Z,6.43
2023-04-07T01:13:45.068Z,6.43
2023-04-07T01:13:55.898Z,6.41
2023-04-07T01:14:06.090Z,6.43
2023-04-07T01:14:16.586Z,6.41
2023-04-07T01:14:27.098Z,6.41
2023-04-07T01:14:37.605Z,6.44
2023-04-07T01:14:48.109Z,6.41
2023-04-07T01:14:58.624Z,6.41
2023-04-07T01:15:09.130Z,6.43
2023-04-07T01:15:19.643Z,6.41
2023-04-07T01:15:30.151Z,6.41
2023-04-07T01:15:40.658Z,6.43
2023-04-07T01:15:51.253Z,6.40
2023-04-07T01:16:01.725Z,6.43
2023-04-07T01:16:12.323Z,6.41
2023-04-07T01:16:22.775Z,6.40
2023-04-07T01:16:33.236Z,6.41
2023-04-07T01:16:43.720Z,6.41
2023-04-07T01:16:55.280Z,6.40
2023-04-07T01:17:04.749Z,6.41
2023-04-07T01:17:15.242Z,6.38
2023-04-07T01:17:25.818Z,6.40
2023-04-07T01:17:36.300Z,6.40
2023-04-07T01:17:46.819Z,6.38
2023-04-07T01:17:57.321Z,6.40
2023-04-07T01:18:07.802Z,6.40
2023-04-07T01:18:18.298Z,6.40
2023-04-07T01:18:28.880Z,6.38
2023-04-07T01:18:39.321Z,6.37
2023-04-07T01:18:49.830Z,6.40
2023-04-07T01:19:00.339Z,6.38
2023-04-07T01:19:10.844Z,6.37
2023-04-07T01:19:21.355Z,6.37
2023-04-07T01:19:31.861Z,6.38
2023-04-07T01:19:42.367Z,6.36
2023-04-07T01:19:52.894Z,6.38
2023-04-07T01:20:03.387Z,6.37
2023-04-07T01:20:13.922Z,6.36
2023-04-07T01:20:24.399Z,6.36
2023-04-07T01:20:34.913Z,6.36
2023-04-07T01:20:45.443Z,6.36
2023-04-07T01:20:55.931Z,6.36
2023-04-07T01:21:06.462Z,6.36
2023-04-07T01:21:16.958Z,6.34
2023-04-07T01:21:27.456Z,6.34
2023-04-07T01:21:37.998Z,6.33
2023-04-07T01:21:48.472Z,6.34
2023-04-07T01:21:58.987Z,6.34
2023-04-07T01:22:09.498Z,6.33
2023-04-07T01:22:19.998Z,6.34
2023-04-07T01:22:30.499Z,6.31
2023-04-07T01:22:41.021Z,6.33
2023-04-07T01:22:51.543Z,6.34
2023-04-07T01:23:02.026Z,6.33
2023-04-07T01:23:12.527Z,6.33
2023-04-07T01:23:23.044Z,6.33
2023-04-07T01:23:33.578Z,6.33
2023-04-07T01:23:44.057Z,6.31
2023-04-07T01:23:54.799Z,6.31
2023-04-07T01:24:05.101Z,6.33
2023-04-07T01:24:15.577Z,6.31
2023-04-07T01:24:26.087Z,6.34
2023-04-07T01:24:36.590Z,6.31
2023-04-07T01:24:47.114Z,6.30
2023-04-07T01:24:57.604Z,6.30
2023-04-07T01:25:08.116Z,6.33
2023-04-07T01:25:18.619Z,6.31
2023-04-07T01:25:29.122Z,6.30
2023-04-07T01:25:39.633Z,6.30
2023-04-07T01:25:50.157Z,6.33
2023-04-07T01:26:00.644Z,6.31
2023-04-07T01:26:11.175Z,6.28
2023-04-07T01:26:21.687Z,6.28
2023-04-07T01:26:32.171Z,6.30
2023-04-07T01:26:42.691Z,6.30
2023-04-07T01:26:53.191Z,6.28
2023-04-07T01:27:03.694Z,6.30
2023-04-07T01:27:14.203Z,6.30
2023-04-07T01:27:24.706Z,6.28
2023-04-07T01:27:35.230Z,6.28
2023-04-07T01:27:45.719Z,6.30
2023-04-07T01:27:56.225Z,6.28
2023-04-07T01:28:06.733Z,6.30
2023-04-07T01:28:17.261Z,6.28
2023-04-07T01:28:27.776Z,6.28
2023-04-07T01:28:38.304Z,6.27
2023-04-07T01:28:48.778Z,6.28
2023-04-07T01:28:59.272Z,6.28
2023-04-07T01:29:09.779Z,6.28
2023-04-07T01:29:20.297Z,6.25
2023-04-07T01:29:30.804Z,6.27
2023-04-07T01:29:41.306Z,6.27
2023-04-07T01:29:51.813Z,6.27
2023-04-07T01:30:02.343Z,6.27
2023-04-07T01:30:12.859Z,6.27
2023-04-07T01:30:23.339Z,6.27
2023-04-07T01:30:33.846Z,6.25
2023-04-07T01:30:44.385Z,6.25
2023-04-07T01:30:54.866Z,6.27
2023-04-07T01:31:05.370Z,6.25
2023-04-07T01:31:15.905Z,6.27
2023-04-07T01:31:26.455Z,6.25
2023-04-07T01:31:36.895Z,6.25
2023-04-07T01:31:47.440Z,6.25
2023-04-07T01:31:57.965Z,6.25
2023-04-07T01:32:08.519Z,6.27
2023-04-07T01:32:18.941Z,6.27
2023-04-07T01:32:29.452Z,6.27
2023-04-07T01:32:40.000Z,6.25
2023-04-07T01:32:50.489Z,6.22
2023-04-07T01:33:01.027Z,6.22
2023-04-07T01:33:11.461Z,6.25
2023-04-07T01:33:21.968Z,6.25
2023-04-07T01:33:32.488Z,6.22
2023-04-07T01:33:42.987Z,6.25
2023-04-07T01:33:53.616Z,6.22
2023-04-07T01:34:04.005Z,6.25
2023-04-07T01:34:14.533Z,6.22
2023-04-07T01:34:25.025Z,6.25
2023-04-07T01:34:35.533Z,6.25
2023-04-07T01:34:46.027Z,6.27
2023-04-07T01:34:56.552Z,6.25
2023-04-07T01:35:07.048Z,6.25
2023-04-07T01:35:17.588Z,6.25
2023-04-07T01:35:28.068Z,6.25
2023-04-07T01:35:38.575Z,6.27
2023-04-07T01:35:49.088Z,6.25
2023-04-07T01:35:59.611Z,6.27
2023-04-07T01:36:10.098Z,6.25
2023-04-07T01:36:20.608Z,6.28
2023-04-07T01:36:31.109Z,6.27
2023-04-07T01:36:41.641Z,6.22
2023-04-07T01:36:52.142Z,6.27
2023-04-07T01:37:02.703Z,6.27
2023-04-07T01:37:13.213Z,6.28
2023-04-07T01:37:23.818Z,6.27
2023-04-07T01:37:34.157Z,6.27
2023-04-07T01:37:44.666Z,6.22
2023-04-07T01:37:55.171Z,6.25
2023-04-07T01:38:05.673Z,6.27
2023-04-07T01:38:16.177Z,6.25
2023-04-07T01:38:26.680Z,6.25
2023-04-07T01:38:37.198Z,6.22
2023-04-07T01:38:47.693Z,6.25
2023-04-07T01:38:58.210Z,6.25
2023-04-07T01:39:08.763Z,6.25
2023-04-07T01:39:19.238Z,6.27
2023-04-07T01:39:29.729Z,6.25
2023-04-07T01:39:40.232Z,6.25
2023-04-07T01:39:50.740Z,6.25
2023-04-07T01:40:01.257Z,6.25
2023-04-07T01:40:11.760Z,6.25
2023-04-07T01:40:22.291Z,6.25
2023-04-07T01:40:32.766Z,6.25
2023-04-07T01:40:43.272Z,6.22
2023-04-07T01:40:53.779Z,6.22
2023-04-07T01:41:04.286Z,6.25
2023-04-07T01:41:14.835Z,6.22
2023-04-07T01:41:25.305Z,6.22
2023-04-07T01:41:35.839Z,6.25
2023-04-07T01:41:46.322Z,6.21
2023-04-07T01:41:56.829Z,6.21
2023-04-07T01:42:07.342Z,6.22
2023-04-07T01:42:17.847Z,6.22
2023-04-07T01:42:28.353Z,6.21
2023-04-07T01:42:38.864Z,6.22
2023-04-07T01:42:49.389Z,6.22
2023-04-07T01:42:59.884Z,6.21
2023-04-07T01:43:10.385Z,6.21
2023-04-07T01:43:20.891Z,6.25
2023-04-07T01:43:31.406Z,6.22
2023-04-07T01:43:42.464Z,6.22
2023-04-07T01:43:52.617Z,6.22
2023-04-07T01:44:02.932Z,6.22
2023-04-07T01:44:13.431Z,6.22
2023-04-07T01:44:23.942Z,6.22
2023-04-07T01:44:34.492Z,6.22
2023-04-07T01:44:44.964Z,6.19
2023-04-07T01:44:55.477Z,6.21
2023-04-07T01:45:05.978Z,6.19
2023-04-07T01:45:16.484Z,6.21
2023-04-07T01:45:26.992Z,6.21
2023-04-07T01:45:37.519Z,6.21
2023-04-07T01:45:48.012Z,6.21
2023-04-07T01:45:58.513Z,6.21
2023-04-07T01:46:09.029Z,6.21
2023-04-07T01:46:19.529Z,6.18
2023-04-07T01:46:30.041Z,6.21
2023-04-07T01:46:40.616Z,6.21
2023-04-07T01:46:51.272Z,6.19
2023-04-07T01:47:01.592Z,6.19
2023-04-07T01:47:12.148Z,6.21
2023-04-07T01:47:22.852Z,6.19
2023-04-07T01:47:33.181Z,6.21
2023-04-07T01:47:43.602Z,6.19
2023-04-07T01:47:54.146Z,6.21
2023-04-07T01:48:04.659Z,6.21
2023-04-07T01:48:15.219Z,6.19
2023-04-07T01:48:25.621Z,6.19
2023-04-07T01:48:36.146Z,6.19
2023-04-07T01:48:46.639Z,6.21
2023-04-07T01:48:57.139Z,6.21
2023-04-07T01:49:07.662Z,6.21
2023-04-07T01:49:18.159Z,6.19
2023-04-07T01:49:28.689Z,6.19
2023-04-07T01:49:39.181Z,6.19
2023-04-07T01:49:49.707Z,6.19
2023-04-07T01:50:00.215Z,6.19
2023-04-07T01:50:10.693Z,6.21
2023-04-07T01:50:21.195Z,6.19
2023-04-07T01:50:31.720Z,6.21
2023-04-07T01:50:42.239Z,6.21
2023-04-07T01:50:52.717Z,6.21
2023-04-07T01:51:03.231Z,6.19
2023-04-07T01:51:13.728Z,6.21
2023-04-07T01:51:24.238Z,6.21
2023-04-07T01:51:34.744Z,6.21
2023-04-07T01:51:45.252Z,6.18
2023-04-07T01:51:55.755Z,6.21
2023-04-07T01:52:06.302Z,6.19
2023-04-07T01:52:16.780Z,6.19
2023-04-07T01:52:27.284Z,6.18
2023-04-07T01:52:37.789Z,6.18
2023-04-07T01:52:48.293Z,6.17
2023-04-07T01:52:58.815Z,6.18
2023-04-07T01:53:09.341Z,6.17
2023-04-07T01:53:19.817Z,6.15
2023-04-07T01:53:30.322Z,6.15
2023-04-07T01:53:40.835Z,6.15
2023-04-07T01:53:51.343Z,6.15
2023-04-07T01:54:01.834Z,6.17
2023-04-07T01:54:12.346Z,6.15
2023-04-07T01:54:22.863Z,6.17
2023-04-07T01:54:33.363Z,6.15
2023-04-07T01:54:43.875Z,6.15
2023-04-07T01:54:54.372Z,6.15
2023-04-07T01:55:04.890Z,6.15
2023-04-07T01:55:15.397Z,6.15
2023-04-07T01:55:25.905Z,6.14
2023-04-07T01:55:36.406Z,6.14
2023-04-07T01:55:46.926Z,6.14
2023-04-07T01:55:57.440Z,6.14
2023-04-07T01:56:07.959Z,6.14
2023-04-07T01:56:18.450Z,6.15
2023-04-07T01:56:28.948Z,6.12
2023-04-07T01:56:39.462Z,6.14
2023-04-07T01:56:49.956Z,6.14
2023-04-07T01:57:00.462Z,6.14
2023-04-07T01:57:10.981Z,6.15
2023-04-07T01:57:21.480Z,6.15
2023-04-07T01:57:31.989Z,6.15
2023-04-07T01:57:42.495Z,6.15
2023-04-07T01:57:53.006Z,6.15
2023-04-07T01:58:03.537Z,6.14
2023-04-07T01:58:14.021Z,6.14
2023-04-07T01:58:24.537Z,6.15
2023-04-07T01:58:35.048Z,6.14
2023-04-07T01:58:45.561Z,6.12
2023-04-07T01:58:56.064Z,6.14
2023-04-07T01:59:06.599Z,6.14
2023-04-07T01:59:17.089Z,6.15
2023-04-07T01:59:27.584Z,6.15
2023-04-07T01:59:38.095Z,6.14
2023-04-07T01:59:48.639Z,6.17
2023-04-07T01:59:59.107Z,6.12
2023-04-07T02:00:09.614Z,6.14
2023-04-07T02:00:20.128Z,6.12
2023-04-07T02:00:30.624Z,6.14
2023-04-07T02:00:41.137Z,6.11
2023-04-07T02:00:51.680Z,6.12
2023-04-07T02:01:02.203Z,6.14
2023-04-07T02:01:12.692Z,6.11
2023-04-07T02:01:23.226Z,6.12
2023-04-07T02:01:33.728Z,6.12
2023-04-07T02:01:44.345Z,6.11
2023-04-07T02:01:54.791Z,6.11
2023-04-07T02:02:05.257Z,6.12
2023-04-07T02:02:15.837Z,6.12
2023-04-07T02:02:26.321Z,6.11
2023-04-07T02:02:36.902Z,6.09
2023-04-07T02:02:47.381Z,6.11
2023-04-07T02:02:57.886Z,6.09
2023-04-07T02:03:08.468Z,6.11
2023-04-07T02:03:18.891Z,6.08
2023-04-07T02:03:29.293Z,6.08
2023-04-07T02:03:39.882Z,6.08
2023-04-07T02:03:50.302Z,6.06
2023-04-07T02:04:00.888Z,6.06
2023-04-07T02:04:11.316Z,6.06
2023-04-07T02:04:21.799Z,6.06
2023-04-07T02:04:32.347Z,6.06
2023-04-07T02:04:42.809Z,6.08
2023-04-07T02:04:53.310Z,6.06
2023-04-07T02:05:03.812Z,6.08
2023-04-07T02:05:14.320Z,6.08
2023-04-07T02:05:24.816Z,6.08
2023-04-07T02:05:35.338Z,6.08
2023-04-07T02:05:45.839Z,6.06
2023-04-07T02:05:56.341Z,6.08
2023-04-07T02:06:06.855Z,6.08
2023-04-07T02:06:17.357Z,6.08
2023-04-07T02:06:27.871Z,6.08
2023-04-07T02:06:38.376Z,6.08
2023-04-07T02:06:48.889Z,6.08
2023-04-07T02:06:59.390Z,6.08
2023-04-07T02:07:09.907Z,6.08
2023-04-07T02:07:20.403Z,6.09
2023-04-07T02:07:30.919Z,6.09
2023-04-07T02:07:41.422Z,6.06
2023-04-07T02:07:51.926Z,6.09
2023-04-07T02:08:02.432Z,6.08
2023-04-07T02:08:12.954Z,6.11
2023-04-07T02:08:23.457Z,6.09
2023-04-07T02:08:33.956Z,6.09
2023-04-07T02:08:44.462Z,6.11
2023-04-07T02:08:54.967Z,6.11
2023-04-07T02:09:05.472Z,6.11
2023-04-07T02:09:15.976Z,6.11
2023-04-07T02:09:26.492Z,6.11
2023-04-07T02:09:37.037Z,6.11
2023-04-07T02:09:47.510Z,6.09
2023-04-07T02:09:58.002Z,6.09
2023-04-07T02:10:08.525Z,6.12
2023-04-07T02:10:19.014Z,6.11
2023-04-07T02:10:29.528Z,6.11
2023-04-07T02:10:40.043Z,6.14
2023-04-07T02:10:50.532Z,6.11
2023-04-07T02:11:01.051Z,6.11
2023-04-07T02:11:11.550Z,6.12
2023-04-07T02:11:22.126Z,6.09
2023-04-07T02:11:32.564Z,6.11
2023-04-07T02:11:43.109Z,6.12
2023-04-07T02:11:53.582Z,6.11
2023-04-07T02:12:04.099Z,6.09
2023-04-07T02:12:14.596Z,6.09
2023-04-07T02:12:25.136Z,6.11
2023-04-07T02:12:35.605Z,6.11
2023-04-07T02:12:46.124Z,6.11
2023-04-07T02:12:56.621Z,6.09
2023-04-07T02:13:07.118Z,6.09
2023-04-07T02:13:17.638Z,6.09
2023-04-07T02:13:28.138Z,6.09
2023-04-07T02:13:38.656Z,6.09
2023-04-07T02:13:49.160Z,6.11
2023-04-07T02:13:59.662Z,6.09
2023-04-07T02:14:10.164Z,6.12
2023-04-07T02:14:20.676Z,6.12
2023-04-07T02:14:31.180Z,6.11
2023-04-07T02:14:41.688Z,6.11
2023-04-07T02:14:52.197Z,6.11
2023-04-07T02:15:02.711Z,6.11
2023-04-07T02:15:13.218Z,6.09
2023-04-07T02:15:23.754Z,6.09
2023-04-07T02:15:34.234Z,6.12
2023-04-07T02:15:44.745Z,6.11
2023-04-07T02:15:55.252Z,6.11
2023-04-07T02:16:05.791Z,6.09
2023-04-07T02:16:16.309Z,6.09
2023-04-07T02:16:26.829Z,6.12
2023-04-07T02:16:37.335Z,6.11
2023-04-07T02:16:49.037Z,6.12
2023-04-07T02:16:58.290Z,6.11
2023-04-07T02:17:08.824Z,6.11
2023-04-07T02:17:19.307Z,6.11
2023-04-07T02:17:29.894Z,6.09
2023-04-07T02:17:40.328Z,6.11
2023-04-07T02:17:50.854Z,6.12
2023-04-07T02:18:01.365Z,6.11
2023-04-07T02:18:11.833Z,6.12
2023-04-07T02:18:22.373Z,6.11
2023-04-07T02:18:32.853Z,6.11
2023-04-07T02:18:43.358Z,6.11
2023-04-07T02:18:53.889Z,6.11
2023-04-07T02:19:04.375Z,6.09
2023-04-07T02:19:14.885Z,6.11
2023-04-07T02:19:25.406Z,6.11
2023-04-07T02:19:35.934Z,6.11
2023-04-07T02:19:46.396Z,6.11